createdAt,value
2018-12-25T00:03:08.433Z,100353.95
2018-12-25T00:05:38.027Z,100348.23
2018-12-25T00:08:07.751Z,100347.09
2018-12-25T00:10:56.398Z,100347.27
2018-12-25T00:13:25.920Z,100343.33
2018-12-25T00:15:55.510Z,100354.20
2018-12-25T00:18:25.076Z,100345.17
2018-12-25T00:20:54.661Z,100343.20
2018-12-25T00:23:24.241Z,100351.47
2018-12-25T00:25:54.427Z,100352.99
2018-12-25T00:28:24.089Z,100352.44
2018-12-25T00:30:53.733Z,100348.53
2018-12-25T00:33:23.407Z,100356.63
2018-12-25T00:35:53.022Z,100355.98
2018-12-25T00:38:22.795Z,100364.59
2018-12-25T00:40:52.428Z,100371.69
2018-12-25T00:43:22.055Z,100372.55
2018-12-25T00:45:51.764Z,100369.02
2018-12-25T00:48:21.460Z,100359.59
2018-12-25T00:50:51.078Z,100351.23
2018-12-25T00:53:20.744Z,100357.39
2018-12-25T00:55:50.464Z,100355.87
2018-12-25T00:58:20.033Z,100358.63
2018-12-25T01:00:49.691Z,100367.17
2018-12-25T01:03:19.355Z,100363.09
2018-12-25T01:05:48.939Z,100379.36
2018-12-25T01:08:18.543Z,100370.56
2018-12-25T01:10:48.138Z,100376.50
2018-12-25T01:13:18.139Z,100370.72
2018-12-25T01:15:47.837Z,100380.20
2018-12-25T01:18:17.482Z,100372.34
2018-12-25T01:20:47.263Z,100378.43
2018-12-25T01:23:16.926Z,100378.22
2018-12-25T01:25:46.497Z,100366.48
2018-12-25T01:28:16.109Z,100365.86
2018-12-25T01:30:45.697Z,100368.89
2018-12-25T01:33:15.359Z,100360.30
2018-12-25T01:35:45.030Z,100368.77
2018-12-25T01:38:14.612Z,100372.25
2018-12-25T01:40:44.212Z,100373.02
2018-12-25T01:43:13.809Z,100375.05
2018-12-25T01:45:43.373Z,100374.39
2018-12-25T01:48:12.914Z,100382.25
2018-12-25T01:50:42.877Z,100382.60
2018-12-25T01:53:12.446Z,100392.73
2018-12-25T01:55:42.032Z,100392.89
2018-12-25T01:58:30.478Z,100395.78
2018-12-25T02:01:00.085Z,100401.45
2018-12-25T02:03:29.665Z,100395.98
2018-12-25T02:05:59.289Z,100396.19
2018-12-25T02:08:28.866Z,100395.32
2018-12-25T02:10:58.436Z,100388.39
2018-12-25T02:13:28.044Z,100381.45
2018-12-25T02:18:45.987Z,100379.06
2018-12-25T02:21:15.903Z,100386.16
2018-12-25T02:23:45.528Z,100387.89
2018-12-25T02:26:15.069Z,100378.95
2018-12-25T02:28:44.663Z,100384.52
2018-12-25T02:31:14.428Z,100380.52
2018-12-25T02:33:44.281Z,100380.33
2018-12-25T02:36:13.928Z,100365.94
2018-12-25T02:38:43.534Z,100365.27
2018-12-25T02:41:13.238Z,100356.84
2018-12-25T02:43:42.845Z,100361.55
2018-12-25T02:46:12.443Z,100354.72
2018-12-25T02:48:42.018Z,100354.82
2018-12-25T02:51:11.617Z,100349.09
2018-12-25T02:53:41.181Z,100351.56
2018-12-25T02:56:10.819Z,100346.00
2018-12-25T02:58:59.591Z,100353.29
2018-12-25T03:01:29.513Z,100358.38
2018-12-25T03:03:59.062Z,100350.98
2018-12-25T03:06:28.638Z,100358.38
2018-12-25T03:08:58.130Z,100359.80
2018-12-25T03:11:27.752Z,100355.52
2018-12-25T03:13:57.338Z,100353.29
2018-12-25T03:16:26.923Z,100347.02
2018-12-25T03:18:56.563Z,100347.95
2018-12-25T03:21:26.137Z,100337.05
2018-12-25T03:23:55.748Z,100332.81
2018-12-25T03:26:25.290Z,100332.75
2018-12-25T03:28:54.959Z,100338.20
2018-12-25T03:31:24.723Z,100325.88
2018-12-25T03:33:54.869Z,100317.50
2018-12-25T03:36:24.642Z,100323.19
2018-12-25T03:38:54.437Z,100315.27
2018-12-25T03:41:24.141Z,100318.81
2018-12-25T03:46:29.339Z,100322.77
2018-12-25T03:48:59.124Z,100321.34
2018-12-25T03:51:29.091Z,100317.51
2018-12-25T03:53:58.660Z,100329.20
2018-12-25T03:56:28.212Z,100326.56
2018-12-25T03:58:57.835Z,100323.58
2018-12-25T04:04:15.835Z,100319.91
2018-12-25T04:06:45.482Z,100310.05
2018-12-25T04:09:15.203Z,100313.95
2018-12-25T04:11:44.763Z,100313.72
2018-12-25T04:14:14.302Z,100314.13
2018-12-25T04:16:43.909Z,100310.38
2018-12-25T04:19:13.457Z,100309.23
2018-12-25T04:21:43.050Z,100313.20
2018-12-25T04:24:12.979Z,100322.95
2018-12-25T04:26:42.539Z,100316.52
2018-12-25T04:29:12.161Z,100312.63
2018-12-25T04:31:41.760Z,100317.31
2018-12-25T04:34:11.382Z,100317.77
2018-12-25T04:36:40.957Z,100325.13
2018-12-25T04:39:10.598Z,100318.77
2018-12-25T04:41:40.186Z,100327.31
2018-12-25T04:44:09.751Z,100328.44
2018-12-25T04:46:39.446Z,100318.34
2018-12-25T04:49:09.004Z,100315.70
2018-12-25T04:51:38.609Z,100312.09
2018-12-25T04:54:08.158Z,100309.40
2018-12-25T04:56:38.032Z,100314.41
2018-12-25T05:01:42.819Z,100309.80
2018-12-25T05:04:12.434Z,100310.03
2018-12-25T05:07:01.028Z,100309.38
2018-12-25T05:12:07.275Z,100317.63
2018-12-25T05:14:36.898Z,100314.45
2018-12-25T05:17:06.458Z,100323.02
2018-12-25T05:19:35.993Z,100331.94
2018-12-25T05:22:05.934Z,100333.52
2018-12-25T05:24:35.640Z,100342.61
2018-12-25T05:27:05.501Z,100339.05
2018-12-25T05:29:35.245Z,100331.83
2018-12-25T05:32:04.981Z,100330.62
2018-12-25T05:34:34.665Z,100338.13
2018-12-25T05:37:04.261Z,100329.30
2018-12-25T05:39:33.998Z,100327.67
2018-12-25T05:42:03.789Z,100325.86
2018-12-25T05:44:33.600Z,100325.80
2018-12-25T05:47:03.579Z,100316.86
2018-12-25T05:49:33.273Z,100317.95
2018-12-25T05:52:03.051Z,100325.86
2018-12-25T05:54:32.771Z,100325.80
2018-12-25T05:57:02.491Z,100324.63
2018-12-25T05:59:32.109Z,100323.22
2018-12-25T06:02:02.339Z,100324.94
2018-12-25T06:04:32.078Z,100320.27
2018-12-25T06:07:20.907Z,100332.34
2018-12-25T06:09:50.855Z,100325.23
2018-12-25T06:12:20.630Z,100324.42
2018-12-25T06:14:50.310Z,100313.41
2018-12-25T06:19:56.911Z,100319.55
2018-12-25T06:22:26.617Z,100318.84
2018-12-25T06:24:56.427Z,100319.06
2018-12-25T06:27:26.150Z,100320.55
2018-12-25T06:29:55.969Z,100316.72
2018-12-25T06:32:25.826Z,100322.84
2018-12-25T06:34:55.734Z,100316.25
2018-12-25T06:37:26.005Z,100316.45
2018-12-25T06:39:55.761Z,100315.53
2018-12-25T06:42:25.607Z,100321.65
2018-12-25T06:44:55.433Z,100314.19
2018-12-25T06:47:44.107Z,100310.00
2018-12-25T06:50:13.885Z,100308.00
2018-12-25T06:52:43.656Z,100303.18
2018-12-25T06:55:13.415Z,100300.88
2018-12-25T06:57:43.112Z,100296.01
2018-12-25T07:00:12.910Z,100292.69
2018-12-25T07:05:31.306Z,100297.06
2018-12-25T07:08:01.114Z,100301.34
2018-12-25T07:10:30.817Z,100290.39
2018-12-25T07:13:19.380Z,100292.16
2018-12-25T07:15:49.131Z,100292.16
2018-12-25T07:18:18.824Z,100294.14
2018-12-25T07:20:48.674Z,100287.23
2018-12-25T07:23:18.269Z,100293.31
2018-12-25T07:26:06.885Z,100285.05
2018-12-25T07:28:36.707Z,100297.38
2018-12-25T07:31:25.146Z,100296.29
2018-12-25T07:33:54.792Z,100291.53
2018-12-25T07:36:24.680Z,100282.98
2018-12-25T07:38:54.484Z,100282.30
2018-12-25T07:41:43.374Z,100282.36
2018-12-25T07:44:13.260Z,100282.23
2018-12-25T07:46:42.992Z,100283.90
2018-12-25T07:49:13.249Z,100292.22
2018-12-25T07:51:42.982Z,100297.89
2018-12-25T07:54:12.752Z,100295.25
2018-12-25T07:56:42.602Z,100296.57
2018-12-25T07:59:12.468Z,100301.91
2018-12-25T08:02:01.041Z,100302.77
2018-12-25T08:04:49.519Z,100304.37
2018-12-25T08:07:19.014Z,100290.73
2018-12-25T08:09:48.668Z,100298.48
2018-12-25T08:12:18.233Z,100274.61
2018-12-25T08:14:48.150Z,100257.98
2018-12-25T08:17:17.755Z,100274.89
2018-12-25T08:19:47.309Z,100272.31
2018-12-25T08:22:17.055Z,100279.38
2018-12-25T08:24:46.610Z,100279.84
2018-12-25T08:27:16.259Z,100293.19
2018-12-25T08:29:45.837Z,100292.30
2018-12-25T08:32:15.434Z,100297.86
2018-12-25T08:34:45.091Z,100292.39
2018-12-25T08:37:14.976Z,100285.73
2018-12-25T08:39:44.885Z,100280.64
2018-12-25T08:42:14.446Z,100286.31
2018-12-25T08:45:03.194Z,100284.87
2018-12-25T08:47:33.144Z,100275.84
2018-12-25T08:50:02.740Z,100271.42
2018-12-25T08:52:32.488Z,100272.02
2018-12-25T08:55:02.098Z,100279.88
2018-12-25T08:57:31.764Z,100287.39
2018-12-25T09:00:01.318Z,100292.06
2018-12-25T09:02:30.967Z,100298.20
2018-12-25T09:05:00.558Z,100310.42
2018-12-25T09:07:49.221Z,100311.03
2018-12-25T09:10:19.048Z,100290.22
2018-12-25T09:12:48.806Z,100294.52
2018-12-25T09:15:18.649Z,100299.21
2018-12-25T09:17:48.240Z,100289.23
2018-12-25T09:20:36.709Z,100293.98
2018-12-25T09:23:06.428Z,100292.34
2018-12-25T09:26:15.464Z,100278.67
2018-12-25T09:28:45.221Z,100275.52
2018-12-25T09:31:15.013Z,100273.17
2018-12-25T09:34:03.437Z,100285.21
2018-12-25T09:36:33.029Z,100296.84
2018-12-25T09:41:51.362Z,100314.20
2018-12-25T09:44:20.971Z,100322.73
2018-12-25T09:49:46.124Z,100320.28
2018-12-25T09:52:15.685Z,100327.03
2018-12-25T09:54:45.231Z,100325.19
2018-12-25T10:00:09.113Z,100327.61
2018-12-25T10:02:38.644Z,100317.70
2018-12-25T10:05:16.029Z,100307.64
2018-12-25T10:07:45.624Z,100297.63
2018-12-25T10:10:15.262Z,100306.47
2018-12-25T10:12:44.824Z,100314.33
2018-12-25T10:15:14.432Z,100315.51
2018-12-25T10:17:43.947Z,100321.86
2018-12-25T10:20:13.575Z,100312.73
2018-12-25T10:22:43.561Z,100307.45
2018-12-25T10:25:31.944Z,100302.42
2018-12-25T10:28:01.634Z,100301.44
2018-12-25T10:30:31.250Z,100309.84
2018-12-25T10:33:00.805Z,100311.75
2018-12-25T10:35:30.374Z,100324.30
2018-12-25T10:38:00.028Z,100314.03
2018-12-25T10:40:29.560Z,100314.59
2018-12-25T10:42:59.200Z,100319.95
2018-12-25T10:45:28.790Z,100314.99
2018-12-25T10:47:58.560Z,100303.86
2018-12-25T10:50:28.220Z,100311.98
2018-12-25T10:53:16.699Z,100308.42
2018-12-25T10:55:46.287Z,100306.80
2018-12-25T10:58:15.912Z,100304.13
2018-12-25T11:00:49.405Z,100290.38
2018-12-25T11:03:18.949Z,100287.53
2018-12-25T11:05:48.553Z,100298.34
2018-12-25T11:08:18.125Z,100288.39
2018-12-25T11:10:47.751Z,100294.94
2018-12-25T11:13:17.331Z,100285.97
2018-12-25T11:15:46.914Z,100285.05
2018-12-25T11:18:16.499Z,100275.27
2018-12-25T11:20:46.177Z,100277.44
2018-12-25T11:23:15.804Z,100276.19
2018-12-25T11:25:45.433Z,100263.63
2018-12-25T11:28:34.209Z,100263.42
2018-12-25T11:31:03.806Z,100253.58
2018-12-25T11:33:33.500Z,100241.00
2018-12-25T11:36:03.099Z,100240.15
2018-12-25T11:38:32.621Z,100246.50
2018-12-25T11:41:02.601Z,100240.37
2018-12-25T11:43:32.188Z,100248.94
2018-12-25T11:46:01.791Z,100252.52
2018-12-25T11:48:31.329Z,100253.20
2018-12-25T11:51:00.936Z,100246.44
2018-12-25T11:53:30.523Z,100255.69
2018-12-25T11:56:00.114Z,100251.45
2018-12-25T11:58:29.840Z,100253.85
2018-12-25T12:00:59.437Z,100254.38
2018-12-25T12:03:29.256Z,100255.62
2018-12-25T12:05:59.134Z,100257.20
2018-12-25T12:08:28.688Z,100259.84
2018-12-25T12:10:58.651Z,100268.79
2018-12-25T12:13:28.275Z,100261.92
2018-12-25T12:15:57.885Z,100260.06
2018-12-25T12:18:27.590Z,100258.52
2018-12-25T12:20:57.252Z,100257.42
2018-12-25T12:23:26.913Z,100264.03
2018-12-25T12:25:56.546Z,100268.26
2018-12-25T12:28:26.249Z,100274.13
2018-12-25T12:30:55.870Z,100256.89
2018-12-25T12:33:25.476Z,100258.94
2018-12-25T12:35:55.189Z,100265.70
2018-12-25T12:38:24.897Z,100261.77
2018-12-25T12:40:54.497Z,100268.14
2018-12-25T12:43:24.096Z,100269.86
2018-12-25T12:45:53.746Z,100278.19
2018-12-25T12:48:23.346Z,100288.37
2018-12-25T12:50:52.956Z,100279.77
2018-12-25T12:53:22.869Z,100281.16
2018-12-25T12:55:52.481Z,100282.95
2018-12-25T12:58:22.119Z,100278.95
2018-12-25T13:00:51.678Z,100289.30
2018-12-25T13:03:21.252Z,100290.48
2018-12-25T13:05:51.352Z,100306.08
2018-12-25T13:08:20.962Z,100295.24
2018-12-25T13:10:50.861Z,100287.70
2018-12-25T13:13:20.442Z,100288.63
2018-12-25T13:15:50.420Z,100285.52
2018-12-25T13:18:20.030Z,100272.88
2018-12-25T13:20:49.970Z,100268.91
2018-12-25T13:23:19.651Z,100266.54
2018-12-25T13:25:49.592Z,100267.02
2018-12-25T13:28:19.172Z,100261.51
2018-12-25T13:30:48.771Z,100265.34
2018-12-25T13:33:18.793Z,100262.19
2018-12-25T13:35:48.411Z,100264.75
2018-12-25T13:38:18.047Z,100274.09
2018-12-25T13:40:47.700Z,100262.84
2018-12-25T13:43:17.259Z,100263.95
2018-12-25T13:45:46.862Z,100260.97
2018-12-25T13:48:16.865Z,100261.37
2018-12-25T13:50:46.472Z,100276.61
2018-12-25T13:53:16.067Z,100283.86
2018-12-25T13:55:45.629Z,100280.74
2018-12-25T13:58:15.237Z,100284.80
2018-12-25T14:00:44.883Z,100287.11
2018-12-25T14:03:33.446Z,100284.91
2018-12-25T14:06:02.993Z,100285.12
2018-12-25T14:08:32.616Z,100276.67
2018-12-25T14:11:02.220Z,100286.19
2018-12-25T14:13:31.816Z,100285.19
2018-12-25T14:16:01.430Z,100289.62
2018-12-25T14:18:31.036Z,100287.51
2018-12-25T14:23:49.171Z,100284.25
2018-12-25T14:26:18.731Z,100284.66
2018-12-25T14:28:48.291Z,100285.25
2018-12-25T14:31:17.828Z,100283.06
2018-12-25T14:33:47.412Z,100282.20
2018-12-25T14:36:16.970Z,100286.77
2018-12-25T14:38:58.010Z,100282.92
2018-12-25T14:41:27.601Z,100278.50
2018-12-25T14:44:04.951Z,100270.63
2018-12-25T14:46:28.902Z,100280.74
2018-12-25T14:49:18.321Z,100273.02
2018-12-25T14:52:07.827Z,100271.02
2018-12-25T14:54:37.634Z,100275.73
2018-12-25T14:57:07.163Z,100273.55
2018-12-25T14:59:36.725Z,100273.76
2018-12-25T15:02:06.562Z,100279.52
2018-12-25T15:04:36.171Z,100266.81
2018-12-25T15:07:05.714Z,100280.21
2018-12-25T15:09:35.312Z,100281.47
2018-12-25T15:12:05.353Z,100277.03
2018-12-25T15:14:35.012Z,100277.11
2018-12-25T15:17:04.654Z,100269.72
2018-12-25T15:19:34.250Z,100278.05
2018-12-25T15:22:03.925Z,100283.73
2018-12-25T15:24:33.554Z,100285.27
2018-12-25T15:27:03.133Z,100272.76
2018-12-25T15:29:32.733Z,100278.45
2018-12-25T15:32:02.461Z,100275.98
2018-12-25T15:34:32.089Z,100279.42
2018-12-25T15:37:02.816Z,100273.02
2018-12-25T15:39:33.211Z,100278.78
2018-12-25T15:42:02.832Z,100269.39
2018-12-25T15:44:32.393Z,100271.90
2018-12-25T15:47:02.007Z,100270.97
2018-12-25T15:49:31.608Z,100275.47
2018-12-25T15:52:01.181Z,100289.70
2018-12-25T15:54:30.767Z,100287.98
2018-12-25T15:57:02.199Z,100287.91
2018-12-25T15:59:31.799Z,100288.09
2018-12-25T16:02:01.493Z,100294.04
2018-12-25T16:04:31.093Z,100292.06
2018-12-25T16:07:00.654Z,100296.36
2018-12-25T16:09:30.227Z,100293.85
2018-12-25T16:11:59.804Z,100291.34
2018-12-25T16:14:29.375Z,100284.80
2018-12-25T16:16:59.015Z,100285.71
2018-12-25T16:19:28.660Z,100282.67
2018-12-25T16:21:58.312Z,100279.77
2018-12-25T16:24:27.964Z,100280.89
2018-12-25T16:26:57.596Z,100287.56
2018-12-25T16:29:27.254Z,100282.28
2018-12-25T16:34:45.707Z,100279.77
2018-12-25T16:37:15.277Z,100288.56
2018-12-25T16:39:44.875Z,100286.57
2018-12-25T16:42:14.477Z,100290.94
2018-12-25T16:44:44.055Z,100288.19
2018-12-25T16:47:13.599Z,100286.11
2018-12-25T16:49:43.186Z,100283.13
2018-12-25T16:52:12.833Z,100281.20
2018-12-25T16:54:42.517Z,100286.52
2018-12-25T16:57:31.444Z,100277.77
2018-12-25T17:00:20.075Z,100280.23
2018-12-25T17:02:49.826Z,100289.88
2018-12-25T17:05:19.407Z,100291.20
2018-12-25T17:08:07.995Z,100300.93
2018-12-25T17:10:37.862Z,100283.99
2018-12-25T17:13:07.451Z,100282.28
2018-12-25T17:15:37.179Z,100290.81
2018-12-25T17:18:06.797Z,100280.63
2018-12-25T17:20:36.365Z,100294.05
2018-12-25T17:23:05.954Z,100291.47
2018-12-25T17:25:35.504Z,100293.45
2018-12-25T17:28:05.108Z,100299.54
2018-12-25T17:30:34.652Z,100301.58
2018-12-25T17:33:04.301Z,100302.12
2018-12-25T17:35:52.870Z,100299.73
2018-12-25T17:38:22.503Z,100298.55
2018-12-25T17:40:52.430Z,100298.88
2018-12-25T17:43:22.519Z,100305.30
2018-12-25T17:45:52.091Z,100293.47
2018-12-25T17:48:21.691Z,100307.73
2018-12-25T17:50:51.296Z,100302.18
2018-12-25T17:53:20.905Z,100304.57
2018-12-25T17:55:50.612Z,100307.68
2018-12-25T17:58:20.482Z,100302.13
2018-12-25T18:00:50.063Z,100304.38
2018-12-25T18:03:19.681Z,100309.05
2018-12-25T18:05:49.409Z,100305.62
2018-12-25T18:08:18.974Z,100303.97
2018-12-25T18:10:48.463Z,100313.88
2018-12-25T18:13:18.100Z,100309.52
2018-12-25T18:15:47.744Z,100305.41
2018-12-25T18:18:36.293Z,100309.45
2018-12-25T18:21:24.716Z,100309.45
2018-12-25T18:23:54.346Z,100305.70
2018-12-25T18:26:23.926Z,100308.33
2018-12-25T18:28:53.516Z,100308.47
2018-12-25T18:31:23.321Z,100310.84
2018-12-25T18:33:53.250Z,100311.91
2018-12-25T18:36:23.007Z,100308.27
2018-12-25T18:38:52.591Z,100305.62
2018-12-25T18:41:22.635Z,100315.34
2018-12-25T18:43:52.332Z,100323.93
2018-12-25T18:46:22.099Z,100320.10
2018-12-25T18:49:10.725Z,100315.48
2018-12-25T18:51:40.321Z,100314.22
2018-12-25T18:54:10.158Z,100307.87
2018-12-25T18:56:39.787Z,100310.72
2018-12-25T18:59:09.493Z,100307.08
2018-12-25T19:01:39.220Z,100304.77
2018-12-25T19:04:08.844Z,100305.83
2018-12-25T19:06:38.495Z,100308.48
2018-12-25T19:09:08.682Z,100311.17
2018-12-25T19:11:40.149Z,100313.31
2018-12-25T19:14:28.694Z,100311.92
2018-12-25T19:16:58.387Z,100305.42
2018-12-25T19:19:46.960Z,100307.67
2018-12-25T19:24:54.005Z,100298.08
2018-12-25T19:27:23.594Z,100305.75
2018-12-25T19:29:53.248Z,100309.72
2018-12-25T19:32:22.968Z,100306.73
2018-12-25T19:34:52.544Z,100311.25
2018-12-25T19:37:41.537Z,100315.91
2018-12-25T19:40:11.361Z,100316.01
2018-12-25T19:42:43.682Z,100312.24
2018-12-25T19:45:13.399Z,100310.32
2018-12-25T19:47:43.030Z,100304.34
2018-12-25T19:50:12.845Z,100305.23
2018-12-25T19:52:42.415Z,100305.17
2018-12-25T19:55:12.145Z,100294.83
2018-12-25T19:57:41.862Z,100304.77
2018-12-25T20:00:13.280Z,100304.23
2018-12-25T20:02:43.717Z,100309.70
2018-12-25T20:05:51.354Z,100292.18
2018-12-25T20:08:58.831Z,100298.48
2018-12-25T20:12:06.680Z,100301.57
2018-12-25T20:15:14.248Z,100305.34
2018-12-25T20:18:21.772Z,100301.17
2018-12-25T20:21:20.180Z,100296.84
2018-12-25T20:24:27.765Z,100293.38
2018-12-25T20:27:28.387Z,100297.14
2018-12-25T20:30:35.969Z,100293.84
2018-12-25T20:33:43.569Z,100291.52
2018-12-25T20:36:51.250Z,100296.48
2018-12-25T20:39:58.722Z,100290.87
2018-12-25T20:43:06.248Z,100286.05
2018-12-25T20:46:13.723Z,100290.24
2018-12-25T20:49:32.801Z,100285.31
2018-12-25T20:52:40.888Z,100284.89
2018-12-25T20:55:48.456Z,100288.75
2018-12-25T20:58:56.000Z,100283.89
2018-12-25T21:02:03.425Z,100277.35
2018-12-25T21:05:11.144Z,100273.72
2018-12-25T21:11:42.769Z,100278.41
2018-12-25T21:14:50.774Z,100278.67
2018-12-25T21:17:58.266Z,100277.48
2018-12-25T21:21:20.546Z,100278.94
2018-12-25T21:24:15.798Z,100288.79
2018-12-25T21:27:23.341Z,100290.31
2018-12-25T21:30:12.057Z,100283.03
2018-12-25T21:32:43.428Z,100280.13
2018-12-25T21:35:16.784Z,100279.14
2018-12-25T21:38:25.604Z,100277.69
2018-12-25T21:41:34.404Z,100273.59
2018-12-25T21:44:43.202Z,100274.19
2018-12-25T21:47:12.920Z,100272.59
2018-12-25T21:50:23.798Z,100266.06
2018-12-25T21:53:13.032Z,100257.27
2018-12-25T21:55:42.897Z,100263.05
2018-12-25T21:58:12.665Z,100258.23
2018-12-25T22:03:50.973Z,100256.18
2018-12-25T22:06:20.926Z,100261.17
2018-12-25T22:11:41.566Z,100260.14
2018-12-25T22:14:30.415Z,100256.58
2018-12-25T22:17:19.170Z,100257.17
2018-12-25T22:19:49.233Z,100258.48
2018-12-25T22:22:19.218Z,100254.33
2018-12-25T22:24:48.815Z,100256.31
2018-12-25T22:27:18.459Z,100256.05
2018-12-25T22:29:48.412Z,100264.90
2018-12-25T22:32:17.957Z,100256.11
2018-12-25T22:34:47.498Z,100266.88
2018-12-25T22:37:17.746Z,100266.16
2018-12-25T22:39:47.756Z,100263.11
2018-12-25T22:42:17.331Z,100268.60
2018-12-25T22:45:26.172Z,100267.74
2018-12-25T22:51:06.252Z,100252.67
2018-12-25T22:56:46.088Z,100254.86
2018-12-25T22:59:15.657Z,100258.36
2018-12-25T23:01:45.251Z,100259.31
2018-12-25T23:04:14.813Z,100261.63
2018-12-25T23:06:44.394Z,100259.68
2018-12-25T23:09:16.650Z,100267.24
2018-12-25T23:11:46.240Z,100257.10
2018-12-25T23:14:15.780Z,100259.84
2018-12-25T23:16:45.310Z,100254.16
2018-12-25T23:19:15.084Z,100252.17
2018-12-25T23:24:19.313Z,100249.01
2018-12-25T23:29:23.376Z,100242.86
2018-12-25T23:31:53.106Z,100242.14
2018-12-25T23:34:22.619Z,100237.28
2018-12-25T23:39:40.798Z,100243.06
2018-12-25T23:42:10.365Z,100239.76
2018-12-25T23:44:40.036Z,100247.09
2018-12-25T23:47:28.568Z,100245.20
2018-12-25T23:49:58.174Z,100237.19
2018-12-25T23:52:27.905Z,100241.97
2018-12-25T23:54:58.939Z,100231.13
2018-12-25T23:57:29.218Z,100243.69
2018-12-25T23:59:58.917Z,100242.09
